Time;durP1;ratioP1;P1;durP2;ratioP2;P2;SDS_P1;SDS_P2;PMS_P1;PMS_P2;Temp;Humidity;BMP_temperature;BMP_pressure;BME280_temperature;BME280_humidity;BME280_pressure;Samples;Min_cycle;Max_cycle;Signal;HPM_P1;HPM_P2
2023/10/03 00:01:01;;;;;;;;;;;;;;;19.98;64.51;97967.16;617238;230;64585;-67
2023/10/03 00:03:28;;;;;;;;;;;;;;;19.98;65.35;97959.95;617704;230;65236;-67
2023/10/03 00:05:56;;;;;;;;;;;;;;;19.98;65.32;97965.29;617715;227;62859;-67
2023/10/03 00:08:24;;;;;;;;;;;;;;;19.98;65.34;97967.16;617656;230;64711;-67
2023/10/03 00:10:53;;;;;;;;;;;;;;;19.96;65.07;97962.85;617635;230;62788;-67
2023/10/03 00:13:20;;;;;;;;;;;;;;;19.97;65.37;97966.35;617670;230;65061;-67
2023/10/03 00:15:49;;;;;;;;;;;;;;;19.98;65.59;97964.48;617627;230;62168;-67
2023/10/03 00:18:16;;;;;;;;;;;;;;;19.96;65.29;97962.85;617684;230;63495;-67
2023/10/03 00:20:44;;;;;;;;;;;;;;;19.96;64.92;97962.05;617681;230;65130;-67
2023/10/03 00:23:11;;;;;;;;;;;;;;;19.97;65.38;97966.35;617625;230;64525;-67
2023/10/03 00:25:39;;;;;;;;;;;;;;;19.96;65.30;97970.05;617653;230;63082;-67
2023/10/03 00:28:07;;;;;;;;;;;;;;;19.96;65.28;97968.19;617690;230;62891;-67
2023/10/03 00:30:35;;;;;;;;;;;;;;;19.96;65.12;97962.05;617711;228;64566;-67
2023/10/03 00:33:04;;;;;;;;;;;;;;;19.95;65.42;97963.11;617663;230;63083;-67
2023/10/03 00:35:32;;;;;;;;;;;;;;;19.95;65.50;97973.78;617650;227;65383;-67
2023/10/03 00:38:00;;;;;;;;;;;;;;;19.94;65.54;97964.14;617655;229;62330;-67
2023/10/03 00:40:28;;;;;;;;;;;;;;;19.94;65.40;97969.48;617821;229;66301;-67
2023/10/03 00:43:01;;;;;;;;;;;;;;;19.95;65.25;97968.44;619137;227;62867;-66
2023/10/03 00:45:30;;;;;;;;;;;;;;;19.97;66.32;97969.02;619085;229;63473;-66
2023/10/03 00:48:01;;;;;;;;;;;;;;;19.94;65.01;97964.14;619061;229;65735;-66
2023/10/03 00:50:31;;;;;;;;;;;;;;;19.94;64.84;97970.31;619107;229;65080;-68
2023/10/03 00:53:00;;;;;;;;;;;;;;;19.93;64.44;97967.87;619068;229;64685;-67
2023/10/03 00:55:29;;;;;;;;;;;;;;;19.94;64.62;97964.14;619057;229;65606;-68
2023/10/03 00:58:07;;;;;;;;;;;;;;;19.94;64.79;97958.80;619123;229;65156;-68
2023/10/03 01:00:38;;;;;;;;;;;;;;;19.93;64.65;97963.34;619052;229;62685;-67
2023/10/03 01:03:07;;;;;;;;;;;;;;;19.94;64.78;97969.48;619071;229;63314;-67
2023/10/03 01:05:35;;;;;;;;;;;;;;;19.93;64.54;97965.20;619030;229;62944;-67
2023/10/03 01:08:07;;;;;;;;;;;;;;;19.94;65.50;97964.14;619047;229;64893;-68
2023/10/03 01:10:34;;;;;;;;;;;;;;;19.93;65.29;97963.34;619076;229;65422;-66
2023/10/03 01:13:14;;;;;;;;;;;;;;;19.92;65.01;97960.92;619089;229;65057;-66
2023/10/03 01:15:42;;;;;;;;;;;;;;;19.92;65.15;97961.73;619059;229;62421;-67
2023/10/03 01:18:13;;;;;;;;;;;;;;;19.93;65.49;97965.20;619046;229;65556;-67
2023/10/03 01:20:48;;;;;;;;;;;;;;;19.92;65.52;97967.06;619061;229;63560;-67
2023/10/03 01:23:14;;;;;;;;;;;;;;;19.91;65.05;97959.29;618922;229;62336;-66
2023/10/03 01:25:43;;;;;;;;;;;;;;;19.92;65.69;97952.92;619068;229;41912;-67
2023/10/03 01:28:12;;;;;;;;;;;;;;;19.93;65.93;97959.86;619107;229;62993;-66
2023/10/03 01:30:43;;;;;;;;;;;;;;;19.92;65.04;97955.59;618891;229;64897;-67
2023/10/03 01:33:12;;;;;;;;;;;;;;;19.91;64.73;97956.62;619080;229;63245;-67
2023/10/03 01:35:39;;;;;;;;;;;;;;;19.91;65.25;97953.95;619060;229;65147;-67
2023/10/03 01:38:07;;;;;;;;;;;;;;;19.90;64.77;97958.48;619026;229;64533;-67
2023/10/03 01:40:35;;;;;;;;;;;;;;;19.90;63.83;97950.48;618774;229;62918;-67
2023/10/03 01:43:03;;;;;;;;;;;;;;;19.91;63.99;97964.63;617691;230;65277;-68
2023/10/03 01:45:36;;;;;;;;;;;;;;;19.90;64.16;97958.48;617675;230;63259;-67
2023/10/03 01:48:04;;;;;;;;;;;;;;;19.90;63.82;97952.34;617413;230;64947;-67
2023/10/03 01:50:31;;;;;;;;;;;;;;;19.90;63.37;97949.68;617554;229;63106;-68
2023/10/03 01:52:58;;;;;;;;;;;;;;;19.90;63.27;97955.02;617728;227;64165;-68
2023/10/03 01:55:26;;;;;;;;;;;;;;;19.89;63.31;97951.55;617676;230;62994;-68
2023/10/03 01:57:54;;;;;;;;;;;;;;;19.90;63.39;97958.48;617654;230;65745;-67
2023/10/03 02:00:25;;;;;;;;;;;;;;;19.90;63.18;97952.34;617684;230;64687;-67
2023/10/03 02:02:53;;;;;;;;;;;;;;;19.90;63.47;97955.02;617692;230;66087;-68
2023/10/03 02:05:24;;;;;;;;;;;;;;;19.89;63.57;97956.88;617699;230;65373;-68
2023/10/03 02:07:54;;;;;;;;;;;;;;;19.90;63.30;97955.02;617723;227;64669;-67
2023/10/03 02:10:22;;;;;;;;;;;;;;;19.89;63.27;97948.07;617688;230;63289;-68
2023/10/03 02:12:56;;;;;;;;;;;;;;;19.90;63.17;97947.81;617721;230;63674;-68
2023/10/03 02:15:26;;;;;;;;;;;;;;;19.89;63.59;97948.88;617329;230;64540;-68
2023/10/03 02:17:56;;;;;;;;;;;;;;;19.89;63.68;97948.07;617676;230;65397;-68
2023/10/03 02:20:30;;;;;;;;;;;;;;;19.89;63.54;97945.41;617687;230;65886;-68
2023/10/03 02:22:56;;;;;;;;;;;;;;;19.89;63.34;97942.73;617615;230;64856;-69
2023/10/03 02:25:36;;;;;;;;;;;;;;;19.89;63.19;97945.41;617682;230;62915;-69
2023/10/03 02:28:01;;;;;;;;;;;;;;;19.88;63.40;97938.43;617517;230;62780;-67
2023/10/03 02:30:29;;;;;;;;;;;;;;;19.88;63.21;97944.57;617679;230;62332;-67
2023/10/03 02:33:04;;;;;;;;;;;;;;;19.87;63.09;97932.30;610561;229;67104;-69
2023/10/03 02:35:27;;;;;;;;;;;;;;;19.88;62.91;97938.43;617523;230;63120;-69
2023/10/03 02:37:56;;;;;;;;;;;;;;;19.87;62.79;97942.16;617689;230;65573;-68
2023/10/03 02:40:28;;;;;;;;;;;;;;;19.87;63.25;97944.83;617631;230;65176;-67
2023/10/03 02:42:55;;;;;;;;;;;;;;;19.88;63.29;97941.10;617663;230;63080;-67
2023/10/03 02:45:25;;;;;;;;;;;;;;;19.88;62.76;97946.44;617633;230;64951;-67
2023/10/03 02:48:07;;;;;;;;;;;;;;;19.87;63.52;97942.16;617720;227;66047;-67
2023/10/03 02:50:29;;;;;;;;;;;;;;;19.87;62.84;97942.16;617216;230;65548;-68
2023/10/03 02:52:57;;;;;;;;;;;;;;;19.87;63.01;97945.63;617656;230;64907;-68
2023/10/03 02:55:24;;;;;;;;;;;;;;;19.87;62.42;97947.50;617645;230;65999;-68
2023/10/03 02:57:52;;;;;;;;;;;;;;;19.87;62.51;97952.83;617688;230;64934;-68
2023/10/03 03:00:20;;;;;;;;;;;;;;;19.87;62.36;97947.50;617688;230;62594;-68
2023/10/03 03:02:49;;;;;;;;;;;;;;;19.87;62.34;97947.50;617743;230;65152;-68
2023/10/03 03:05:22;;;;;;;;;;;;;;;19.86;62.38;97945.86;617627;230;46449;-68
2023/10/03 03:07:49;;;;;;;;;;;;;;;19.86;62.39;97941.36;617600;230;64761;-68
2023/10/03 03:10:21;;;;;;;;;;;;;;;19.85;62.55;97947.72;617667;230;65252;-68
2023/10/03 03:12:48;;;;;;;;;;;;;;;19.85;62.25;97941.59;617693;230;64776;-68
2023/10/03 03:15:22;;;;;;;;;;;;;;;19.85;62.38;97939.72;617713;230;65191;-68
2023/10/03 03:17:47;;;;;;;;;;;;;;;19.85;62.22;97942.39;617494;230;64993;-67
2023/10/03 03:20:26;;;;;;;;;;;;;;;19.85;62.21;97936.25;617656;230;62781;-68
2023/10/03 03:23:00;;;;;;;;;;;;;;;19.85;62.71;97933.58;617527;230;64579;-67
2023/10/03 03:25:36;;;;;;;;;;;;;;;19.85;62.40;97938.91;617003;230;64944;-68
2023/10/03 03:27:55;;;;;;;;;;;;;;;19.85;62.29;97933.58;617214;230;64798;-68
2023/10/03 03:33:01;;;;;;;;;;;;;;;19.84;62.63;97939.98;617667;230;65508;-68
2023/10/03 03:35:28;;;;;;;;;;;;;;;19.83;62.33;97930.34;617650;230;65608;-69
2023/10/03 03:37:57;;;;;;;;;;;;;;;19.84;62.30;97939.98;617658;230;64663;-69
2023/10/03 03:40:34;;;;;;;;;;;;;;;19.83;62.28;97938.34;617782;229;65670;-67
2023/10/03 03:43:03;;;;;;;;;;;;;;;19.82;62.18;97940.20;619028;229;65155;-69
2023/10/03 03:45:31;;;;;;;;;;;;;;;19.84;61.92;97937.31;619100;229;62828;-68
2023/10/03 03:48:00;;;;;;;;;;;;;;;19.83;62.02;97933.00;619029;229;64094;-69
2023/10/03 03:50:29;;;;;;;;;;;;;;;19.83;61.93;97935.67;619052;229;63009;-69
2023/10/03 03:52:58;;;;;;;;;;;;;;;19.82;62.29;97940.20;619059;229;64693;-69
2023/10/03 03:55:29;;;;;;;;;;;;;;;19.82;61.94;97934.87;619014;229;64938;-69
2023/10/03 03:57:59;;;;;;;;;;;;;;;19.82;61.97;97936.73;619082;229;64954;-68
2023/10/03 04:00:32;;;;;;;;;;;;;;;19.82;62.00;97931.40;618995;229;64576;-68
2023/10/03 04:03:09;;;;;;;;;;;;;;;19.82;61.76;97939.41;618662;229;64316;-68
2023/10/03 04:05:33;;;;;;;;;;;;;;;19.81;62.07;97933.27;618770;229;65506;-67
2023/10/03 04:08:03;;;;;;;;;;;;;;;19.81;61.85;97938.59;619019;229;65001;-68
2023/10/03 04:10:30;;;;;;;;;;;;;;;19.81;61.65;97943.13;618988;229;65223;-68
2023/10/03 04:12:59;;;;;;;;;;;;;;;19.81;61.69;97940.47;619106;229;63129;-68
2023/10/03 04:15:27;;;;;;;;;;;;;;;19.81;61.39;97940.47;619088;229;64715;-68
2023/10/03 04:17:55;;;;;;;;;;;;;;;19.82;61.89;97942.06;619069;229;64040;-68
2023/10/03 04:20:30;;;;;;;;;;;;;;;19.80;61.72;97942.30;619091;229;62830;-68
2023/10/03 04:22:55;;;;;;;;;;;;;;;19.80;61.88;97949.50;618942;229;64560;-68
2023/10/03 04:25:22;;;;;;;;;;;;;;;19.81;61.91;97949.27;619109;229;62962;-69
2023/10/03 04:27:51;;;;;;;;;;;;;;;19.79;62.14;97956.70;619079;229;65008;-68
2023/10/03 04:30:27;;;;;;;;;;;;;;;19.79;61.92;97955.89;619070;229;64693;-67
2023/10/03 04:32:52;;;;;;;;;;;;;;;19.80;61.76;97952.16;618729;229;65399;-67
2023/10/03 04:35:21;;;;;;;;;;;;;;;19.79;61.88;97956.70;619063;229;65149;-67
2023/10/03 04:37:52;;;;;;;;;;;;;;;19.79;62.02;97958.56;619077;229;62731;-67
2023/10/03 04:40:38;;;;;;;;;;;;;;;19.80;61.84;97962.83;618925;229;62754;-67
2023/10/03 04:43:11;;;;;;;;;;;;;;;19.79;61.79;97966.56;617439;230;62730;-67
2023/10/03 04:45:39;;;;;;;;;;;;;;;19.79;61.80;97962.03;610504;230;60028;-67
2023/10/03 04:48:07;;;;;;;;;;;;;;;19.79;61.59;97963.89;617708;230;65482;-67
2023/10/03 04:50:36;;;;;;;;;;;;;;;19.78;61.53;97965.75;617691;230;65463;-67
2023/10/03 04:53:05;;;;;;;;;;;;;;;19.78;62.48;97964.92;617684;230;64603;-67
2023/10/03 04:55:33;;;;;;;;;;;;;;;19.78;61.68;97970.26;617748;230;65631;-68
2023/10/03 04:58:00;;;;;;;;;;;;;;;19.77;61.87;97974.78;617654;230;65102;-68
2023/10/03 05:00:28;;;;;;;;;;;;;;;19.78;62.02;97970.26;617706;230;62667;-68
2023/10/03 05:02:56;;;;;;;;;;;;;;;19.77;61.54;97971.31;617702;230;63026;-68
2023/10/03 05:05:25;;;;;;;;;;;;;;;19.76;61.95;97975.84;617670;230;65089;-68
2023/10/03 05:07:56;;;;;;;;;;;;;;;19.77;61.87;97976.66;617771;230;62452;-67
2023/10/03 05:10:24;;;;;;;;;;;;;;;19.77;61.84;97979.31;617690;230;65087;-68
2023/10/03 05:12:52;;;;;;;;;;;;;;;19.77;61.66;97974.78;617672;230;65160;-68
2023/10/03 05:15:20;;;;;;;;;;;;;;;19.76;61.67;97972.38;617615;230;64903;-67
2023/10/03 05:17:48;;;;;;;;;;;;;;;19.76;61.34;97980.38;617687;230;65655;-67
2023/10/03 05:20:20;;;;;;;;;;;;;;;19.74;61.40;97984.08;617671;230;65167;-68
2023/10/03 05:22:48;;;;;;;;;;;;;;;19.76;61.46;97980.38;617669;229;64763;-68
2023/10/03 05:25:18;;;;;;;;;;;;;;;19.76;61.82;97980.38;617635;230;65203;-68
2023/10/03 05:27:51;;;;;;;;;;;;;;;19.74;61.71;97983.27;617623;230;64975;-68
2023/10/03 05:30:18;;;;;;;;;;;;;;;19.74;61.85;97984.08;617576;230;65142;-67
2023/10/03 05:32:46;;;;;;;;;;;;;;;19.74;61.59;97980.60;617729;230;65446;-66
2023/10/03 05:35:14;;;;;;;;;;;;;;;19.74;61.70;97984.08;617645;230;64813;-66
2023/10/03 05:37:41;;;;;;;;;;;;;;;19.74;61.61;97991.27;617636;230;64514;-66
2023/10/03 05:40:12;;;;;;;;;;;;;;;19.74;61.55;97991.27;617593;229;63118;-66
2023/10/03 05:42:40;;;;;;;;;;;;;;;19.74;61.84;97986.73;619071;229;63143;-67
2023/10/03 05:45:12;;;;;;;;;;;;;;;19.74;61.58;97991.27;619090;229;64725;-67
2023/10/03 05:47:44;;;;;;;;;;;;;;;19.73;61.25;97990.47;619099;229;65441;-67
2023/10/03 05:50:11;;;;;;;;;;;;;;;19.73;61.47;97985.13;618979;229;65262;-67
2023/10/03 05:52:39;;;;;;;;;;;;;;;19.75;61.84;97995.55;619050;229;62651;-67
2023/10/03 05:55:07;;;;;;;;;;;;;;;19.73;61.85;97995.80;619032;229;65295;-66
2023/10/03 05:57:37;;;;;;;;;;;;;;;19.74;61.70;97991.27;619097;229;63041;-67
2023/10/03 06:00:08;;;;;;;;;;;;;;;19.74;61.45;97991.27;618983;229;62401;-65
2023/10/03 06:02:34;;;;;;;;;;;;;;;19.74;61.52;97989.41;618414;229;64532;-66
2023/10/03 06:05:02;;;;;;;;;;;;;;;19.73;61.73;97993.13;618938;229;65049;-64
2023/10/03 06:07:30;;;;;;;;;;;;;;;19.74;61.43;97992.08;619045;229;62449;-65
2023/10/03 06:09:58;;;;;;;;;;;;;;;19.74;61.46;97988.61;618932;229;65338;-65
2023/10/03 06:12:28;;;;;;;;;;;;;;;19.74;61.24;97985.94;617247;226;65194;-68
2023/10/03 06:14:55;;;;;;;;;;;;;;;19.74;61.34;97986.73;616850;226;67073;-69
2023/10/03 06:17:22;;;;;;;;;;;;;;;19.74;61.60;97992.08;619670;226;63123;-69
2023/10/03 06:19:56;;;;;;;;;;;;;;;19.74;61.28;97992.08;621414;226;65146;-68
2023/10/03 06:22:22;;;;;;;;;;;;;;;19.76;60.61;97991.05;619812;226;46508;-67
2023/10/03 06:24:53;;;;;;;;;;;;;;;19.76;59.32;97989.18;609848;232;64951;-66
2023/10/03 06:27:19;;;;;;;;;;;;;;;19.76;61.50;97988.37;609683;232;67136;-68
2023/10/03 06:29:47;;;;;;;;;;;;;;;19.75;61.58;97987.55;612229;231;63316;-66
2023/10/03 06:32:15;;;;;;;;;;;;;;;19.76;61.08;97985.71;605995;234;65812;-66
2023/10/03 06:34:43;;;;;;;;;;;;;;;19.76;60.80;97989.18;606901;231;65144;-66
2023/10/03 06:37:10;;;;;;;;;;;;;;;19.76;61.17;97983.05;612866;231;62344;-66
2023/10/03 06:39:39;;;;;;;;;;;;;;;19.75;61.10;97992.88;612864;231;63069;-66
2023/10/03 06:42:07;;;;;;;;;;;;;;;19.76;60.95;97981.18;611153;230;65350;-66
2023/10/03 06:44:40;;;;;;;;;;;;;;;19.74;60.80;97984.08;610817;232;63390;-66
2023/10/03 06:47:08;;;;;;;;;;;;;;;19.76;61.36;97983.05;610846;232;63022;-66
2023/10/03 06:49:36;;;;;;;;;;;;;;;19.76;60.27;97977.71;610823;232;65034;-66
2023/10/03 06:52:03;;;;;;;;;;;;;;;19.74;60.61;97976.07;610888;232;64593;-66
2023/10/03 06:54:31;;;;;;;;;;;;;;;19.75;62.21;97976.88;610872;232;65464;-66
2023/10/03 06:56:58;;;;;;;;;;;;;;;19.76;61.17;97972.38;610815;232;64997;-66
2023/10/03 06:59:26;;;;;;;;;;;;;;;19.75;61.67;97976.88;610824;232;64713;-69
2023/10/03 07:01:54;;;;;;;;;;;;;;;19.76;61.55;97975.84;610839;232;62991;-69
2023/10/03 07:04:21;;;;;;;;;;;;;;;19.76;61.31;97978.52;610819;232;65552;-69
2023/10/03 07:06:50;;;;;;;;;;;;;;;19.77;61.57;97979.31;605730;232;64738;-68
2023/10/03 07:09:18;;;;;;;;;;;;;;;19.77;61.65;97976.66;607027;232;64053;-69
2023/10/03 07:11:47;;;;;;;;;;;;;;;19.77;61.82;97979.31;605194;232;62461;-66
2023/10/03 07:14:16;;;;;;;;;;;;;;;19.78;62.21;97967.59;605389;231;64577;-68
2023/10/03 07:16:46;;;;;;;;;;;;;;;19.78;59.31;97964.92;607226;232;64735;-67
2023/10/03 07:19:20;;;;;;;;;;;;;;;19.79;62.21;97969.23;607989;232;65017;-67
2023/10/03 07:21:42;;;;;;;;;;;;;;;19.79;62.07;97966.56;604921;230;62374;-67
2023/10/03 07:24:10;;;;;;;;;;;;;;;19.79;61.88;97966.56;604245;232;65019;-69
2023/10/03 07:26:37;;;;;;;;;;;;;;;19.79;62.32;97962.03;604277;232;64677;-69
2023/10/03 07:29:06;;;;;;;;;;;;;;;19.77;62.11;97958.78;609001;232;62367;-69
2023/10/03 07:31:33;;;;;;;;;;;;;;;19.78;62.80;97964.92;606880;232;65637;-68
2023/10/03 07:34:01;;;;;;;;;;;;;;;19.78;61.84;97963.09;606181;232;62757;-66
2023/10/03 07:36:31;;;;;;;;;;;;;;;19.79;61.58;97966.56;606600;232;64894;-66
2023/10/03 07:38:58;;;;;;;;;;;;;;;19.79;61.60;97966.56;604946;232;64993;-66
2023/10/03 07:41:27;;;;;;;;;;;;;;;19.79;61.70;97967.36;607922;230;65048;-65
2023/10/03 07:43:54;;;;;;;;;;;;;;;19.79;62.21;97966.56;605646;232;64597;-65
2023/10/03 07:46:23;;;;;;;;;;;;;;;19.79;62.20;97967.36;605841;232;63343;-66
2023/10/03 07:48:56;;;;;;;;;;;;;;;19.80;61.84;97970.83;605496;232;65103;-68
2023/10/03 07:51:26;;;;;;;;;;;;;;;19.81;62.07;97972.47;607418;232;64378;-67
2023/10/03 07:53:52;;;;;;;;;;;;;;;19.81;62.10;97975.14;605299;232;65341;-67
2023/10/03 07:56:30;;;;;;;;;;;;;;;19.81;62.17;97967.14;607712;232;65066;-69
2023/10/03 07:58:56;;;;;;;;;;;;;;;19.81;62.13;97967.14;608235;232;67462;-66
2023/10/03 08:01:27;;;;;;;;;;;;;;;19.82;62.51;97971.41;608293;232;63288;-66
2023/10/03 08:03:55;;;;;;;;;;;;;;;19.79;58.26;97966.56;607045;232;65108;-67
2023/10/03 08:06:25;;;;;;;;;;;;;;;19.82;60.47;97968.74;607351;232;62254;-66
2023/10/03 08:08:53;;;;;;;;;;;;;;;19.82;59.50;97971.41;607514;232;65604;-66
2023/10/03 08:11:22;;;;;;;;;;;;;;;19.82;61.47;97960.74;606848;232;65638;-65
2023/10/03 08:13:50;;;;;;;;;;;;;;;19.83;62.56;97967.68;606406;232;62463;-66
2023/10/03 08:16:21;;;;;;;;;;;;;;;19.82;62.30;97963.41;609904;232;65453;-66
2023/10/03 08:18:46;;;;;;;;;;;;;;;19.82;62.31;97972.21;610236;232;63001;-66
2023/10/03 08:21:14;;;;;;;;;;;;;;;19.81;62.68;97957.27;604095;235;64574;-65
2023/10/03 08:23:42;;;;;;;;;;;;;;;19.81;62.66;97959.13;605577;232;65444;-66
2023/10/03 08:26:09;;;;;;;;;;;;;;;19.81;62.84;97959.13;607581;232;64891;-67
2023/10/03 08:28:38;;;;;;;;;;;;;;;19.82;62.17;97960.74;603958;232;64551;-66
2023/10/03 08:31:10;;;;;;;;;;;;;;;19.82;62.66;97960.74;604053;235;63432;-67
2023/10/03 08:33:38;;;;;;;;;;;;;;;19.82;62.60;97960.74;603722;235;64181;-68
2023/10/03 08:36:14;;;;;;;;;;;;;;;19.83;62.82;97965.02;604103;235;64490;-67
2023/10/03 08:38:43;;;;;;;;;;;;;;;19.83;63.19;97960.48;604046;235;65416;-68
2023/10/03 08:41:12;;;;;;;;;;;;;;;19.83;62.94;97962.34;604023;234;63970;-68
2023/10/03 08:43:41;;;;;;;;;;;;;;;19.82;62.79;97960.74;603851;232;64423;-68
2023/10/03 08:46:10;;;;;;;;;;;;;;;19.82;62.95;97956.21;604036;235;63231;-68
2023/10/03 08:48:43;;;;;;;;;;;;;;;19.82;62.87;97955.41;603943;232;64968;-68
2023/10/03 08:51:13;;;;;;;;;;;;;;;19.82;62.58;97952.73;604008;235;64551;-66
2023/10/03 08:53:37;;;;;;;;;;;;;;;19.82;62.41;97958.87;603934;232;62703;-65
2023/10/03 08:56:06;;;;;;;;;;;;;;;19.83;62.45;97951.68;604061;235;65928;-65
2023/10/03 08:58:34;;;;;;;;;;;;;;;19.82;62.43;97952.73;604171;232;64543;-65
2023/10/03 09:01:04;;;;;;;;;;;;;;;19.82;62.92;97958.87;606525;232;65665;-65
2023/10/03 09:03:48;;;;;;;;;;;;;;;19.83;63.23;97949.02;606938;232;62998;-65
2023/10/03 09:06:23;;;;;;;;;;;;;;;19.83;63.08;97946.34;604203;232;62342;-66
2023/10/03 09:08:58;;;;;;;;;;;;;;;19.82;63.13;97940.20;606278;232;65687;-65
2023/10/03 09:11:21;;;;;;;;;;;;;;;19.83;63.23;97941.01;607425;232;63092;-70
2023/10/03 09:13:49;;;;;;;;;;;;;;;19.84;62.72;97945.31;605222;232;63489;-65
2023/10/03 09:16:19;;;;;;;;;;;;;;;19.84;58.48;97937.31;607223;232;66558;-66
2023/10/03 09:18:48;;;;;;;;;;;;;;;19.86;63.22;97946.69;607522;232;65075;-66
2023/10/03 09:21:15;;;;;;;;;;;;;;;19.86;63.42;97945.86;606014;232;64619;-64
2023/10/03 09:23:44;;;;;;;;;;;;;;;19.84;62.96;97946.12;608029;232;65466;-64
2023/10/03 09:26:12;;;;;;;;;;;;;;;19.85;62.55;97944.25;610189;230;65256;-64
2023/10/03 09:28:43;;;;;;;;;;;;;;;19.84;62.84;97935.45;607023;232;64634;-64
2023/10/03 09:31:09;;;;;;;;;;;;;;;19.85;62.62;97938.91;606642;230;65408;-64
2023/10/03 09:33:43;;;;;;;;;;;;;;;19.84;62.89;97937.31;608803;232;65026;-66
2023/10/03 09:36:08;;;;;;;;;;;;;;;19.84;63.27;97932.78;603902;235;62449;-64
2023/10/03 09:38:49;;;;;;;;;;;;;;;19.85;63.38;97929.05;604919;232;65697;-64
2023/10/03 09:41:17;;;;;;;;;;;;;;;19.85;63.48;97936.25;608138;229;64611;-65
2023/10/03 09:43:53;;;;;;;;;;;;;;;19.84;63.15;97934.64;608472;229;62451;-65
2023/10/03 09:46:26;;;;;;;;;;;;;;;19.84;63.13;97932.78;607738;229;65487;-65
2023/10/03 09:49:07;;;;;;;;;;;;;;;19.84;62.72;97921.30;610663;232;65973;-65
2023/10/03 09:54:13;;;;;;;;;;;;;;;19.84;62.98;97919.44;615776;229;65671;-65
2023/10/03 09:56:44;;;;;;;;;;;;;;;19.84;63.48;97913.30;617612;229;65135;-65
2023/10/03 09:59:17;;;;;;;;;;;;;;;19.84;63.84;97915.97;617498;229;64750;-64
2023/10/03 10:01:40;;;;;;;;;;;;;;;19.84;63.45;97914.11;617428;229;65357;-67
2023/10/03 10:04:09;;;;;;;;;;;;;;;19.84;63.02;97910.64;617610;229;64996;-65
2023/10/03 10:06:40;;;;;;;;;;;;;;;19.84;63.29;97915.97;617623;229;66053;-66
2023/10/03 10:09:23;;;;;;;;;;;;;;;19.84;62.96;97908.77;617643;229;62780;-67
2023/10/03 10:11:50;;;;;;;;;;;;;;;19.84;62.69;97915.97;617278;229;65453;-65
2023/10/03 10:14:20;;;;;;;;;;;;;;;19.83;63.10;97907.13;615615;229;64591;-67
2023/10/03 10:17:10;;;;;;;;;;;;;;;19.85;62.70;97901.58;617575;229;63364;-66
2023/10/03 10:19:53;;;;;;;;;;;;;;;19.85;63.32;97896.23;617502;229;62869;-67
2023/10/03 10:22:21;;;;;;;;;;;;;;;19.85;63.03;97888.23;617643;229;64808;-66
2023/10/03 10:24:50;;;;;;;;;;;;;;;19.84;63.36;97883.97;617606;229;62988;-66
2023/10/03 10:27:22;;;;;;;;;;;;;;;19.84;63.03;97879.43;616571;229;62932;-66
2023/10/03 10:29:58;;;;;;;;;;;;;;;19.83;63.52;97880.46;616172;229;64658;-67
2023/10/03 10:32:28;;;;;;;;;;;;;;;19.84;63.71;97875.96;610591;229;65149;-67
2023/10/03 10:35:01;;;;;;;;;;;;;;;19.84;63.69;97867.95;610579;232;64986;-66
2023/10/03 10:37:23;;;;;;;;;;;;;;;19.84;63.64;97867.95;610406;232;63438;-66
2023/10/03 10:40:41;;;;;;;;;;;;;;;19.83;63.64;97860.98;610645;232;65490;-66
2023/10/03 10:42:32;;;;;;;;;;;;;;;19.84;63.42;97865.29;599095;235;65064;-67
2023/10/03 10:45:13;;;;;;;;;;;;;;;19.85;63.53;97869.56;603998;235;64896;-66
2023/10/03 10:47:38;;;;;;;;;;;;;;;19.85;63.56;97853.56;603880;232;65440;-65
2023/10/03 10:50:06;;;;;;;;;;;;;;;19.85;63.08;97853.56;603561;232;65047;-66
2023/10/03 10:52:35;;;;;;;;;;;;;;;19.87;62.92;97852.27;604000;235;64725;-66
2023/10/03 10:55:05;;;;;;;;;;;;;;;19.88;62.60;97842.40;603612;232;63090;-65
2023/10/03 10:57:32;;;;;;;;;;;;;;;19.87;62.11;97844.27;603900;235;64753;-65
2023/10/03 11:00:01;;;;;;;;;;;;;;;19.88;60.75;97840.53;604066;235;64544;-65
2023/10/03 11:02:33;;;;;;;;;;;;;;;19.89;61.16;97841.37;603840;232;65387;-65
2023/10/03 11:05:01;;;;;;;;;;;;;;;19.90;61.25;97826.97;604349;232;62009;-66
2023/10/03 11:07:30;;;;;;;;;;;;;;;19.90;62.85;97825.10;607233;232;62520;-66
2023/10/03 11:09:59;;;;;;;;;;;;;;;19.90;62.42;97818.96;609741;232;70991;-66
2023/10/03 11:12:28;;;;;;;;;;;;;;;19.90;62.73;97817.09;610758;232;65347;-66
2023/10/03 11:14:56;;;;;;;;;;;;;;;19.90;61.36;97816.30;610818;232;64563;-67
2023/10/03 11:17:24;;;;;;;;;;;;;;;19.90;60.25;97822.44;610751;232;65394;-67
2023/10/03 11:19:54;;;;;;;;;;;;;;;19.92;60.44;97815.00;610853;232;65078;-66
2023/10/03 11:22:23;;;;;;;;;;;;;;;19.93;60.50;97815.80;610910;232;62673;-67
2023/10/03 11:24:51;;;;;;;;;;;;;;;19.92;61.65;97817.67;610746;232;64901;-67
2023/10/03 11:27:31;;;;;;;;;;;;;;;19.93;61.37;97810.47;610839;232;63215;-67
2023/10/03 11:29:57;;;;;;;;;;;;;;;19.93;60.43;97802.47;610353;232;64857;-66
2023/10/03 11:32:28;;;;;;;;;;;;;;;19.93;62.31;97799.80;610857;232;65683;-67
2023/10/03 11:34:57;;;;;;;;;;;;;;;19.93;62.76;97797.13;610792;232;64770;-66
2023/10/03 11:37:44;;;;;;;;;;;;;;;19.92;63.65;97796.33;610812;232;62762;-68
2023/10/03 11:40:22;;;;;;;;;;;;;;;19.92;61.86;97792.86;610514;230;65792;-66
2023/10/03 11:42:52;;;;;;;;;;;;;;;19.91;62.47;97793.89;615283;230;68067;-67
2023/10/03 11:45:21;;;;;;;;;;;;;;;19.92;61.39;97796.33;612496;230;62664;-67
2023/10/03 11:48:02;;;;;;;;;;;;;;;19.93;62.58;97786.46;610759;232;63303;-68
2023/10/03 11:50:32;;;;;;;;;;;;;;;19.92;62.75;97788.33;610629;232;65656;-67
2023/10/03 11:53:00;;;;;;;;;;;;;;;19.92;63.39;97785.66;610607;232;64774;-64
2023/10/03 11:55:31;;;;;;;;;;;;;;;19.91;63.54;97784.02;610674;232;63247;-65
2023/10/03 11:57:58;;;;;;;;;;;;;;;19.92;63.09;97784.86;610670;232;65380;-65
2023/10/03 12:00:28;;;;;;;;;;;;;;;19.92;63.10;97780.32;610578;232;64952;-65
2023/10/03 12:02:56;;;;;;;;;;;;;;;19.91;63.35;97773.35;610678;232;65614;-65
2023/10/03 12:05:26;;;;;;;;;;;;;;;19.92;63.03;97774.19;610657;232;63161;-66
2023/10/03 12:07:56;;;;;;;;;;;;;;;19.92;62.82;97771.52;610692;232;64851;-66
2023/10/03 12:10:31;;;;;;;;;;;;;;;19.94;63.10;97764.05;610657;232;63274;-66
2023/10/03 12:12:54;;;;;;;;;;;;;;;19.93;62.79;97765.12;610320;232;64963;-67
2023/10/03 12:15:23;;;;;;;;;;;;;;;19.93;62.78;97759.78;610730;232;62683;-66
2023/10/03 12:17:52;;;;;;;;;;;;;;;19.93;62.56;97759.78;610658;232;63327;-66
2023/10/03 12:20:20;;;;;;;;;;;;;;;19.93;62.58;97749.11;610626;232;63477;-67
2023/10/03 12:22:50;;;;;;;;;;;;;;;19.93;63.00;97746.44;610640;232;64854;-67
2023/10/03 12:25:20;;;;;;;;;;;;;;;19.93;62.75;97747.24;610723;232;65613;-67
2023/10/03 12:27:48;;;;;;;;;;;;;;;19.93;62.79;97738.44;610548;232;63311;-67
2023/10/03 12:30:17;;;;;;;;;;;;;;;19.94;63.24;97745.37;610704;232;62696;-67
2023/10/03 12:32:50;;;;;;;;;;;;;;;19.94;62.63;97737.37;610682;232;63255;-67
2023/10/03 12:35:18;;;;;;;;;;;;;;;19.93;62.59;97733.11;610685;232;63105;-67
2023/10/03 12:37:48;;;;;;;;;;;;;;;19.93;62.74;97731.23;610729;232;62746;-67
2023/10/03 12:40:19;;;;;;;;;;;;;;;19.94;62.60;97724.04;610272;232;63057;-65
2023/10/03 12:42:48;;;;;;;;;;;;;;;19.94;62.86;97726.70;603948;235;65603;-65
2023/10/03 12:45:25;;;;;;;;;;;;;;;19.93;62.95;97723.23;604033;232;67561;-66
2023/10/03 12:47:52;;;;;;;;;;;;;;;19.93;62.52;97719.77;603834;232;65734;-67
2023/10/03 12:50:21;;;;;;;;;;;;;;;19.94;62.74;97718.70;604007;232;69726;-66
2023/10/03 12:52:49;;;;;;;;;;;;;;;19.94;63.36;97721.37;604044;235;64876;-66
2023/10/03 12:55:17;;;;;;;;;;;;;;;19.94;63.29;97722.20;604017;235;65628;-66
2023/10/03 12:57:50;;;;;;;;;;;;;;;19.94;63.13;97713.37;604098;233;63176;-67
2023/10/03 13:00:20;;;;;;;;;;;;;;;19.93;63.26;97717.09;604051;235;62658;-67
2023/10/03 13:02:51;;;;;;;;;;;;;;;19.93;62.80;97715.23;603983;235;65502;-69
2023/10/03 13:05:21;;;;;;;;;;;;;;;19.94;63.83;97713.37;604053;235;65086;-65